createdAt,value
2022-12-14T00:02:48.838Z,14.90
2022-12-14T00:07:46.936Z,14.83
2022-12-14T00:12:48.561Z,15.47
2022-12-14T00:17:46.554Z,16.33
2022-12-14T00:22:44.718Z,14.27
2022-12-14T00:27:44.662Z,13.10
2022-12-14T00:32:44.395Z,13.03
2022-12-14T00:37:42.463Z,16.03
2022-12-14T00:42:40.473Z,14.67
2022-12-14T00:47:40.839Z,16.07
2022-12-14T00:52:40.425Z,16.40
2022-12-14T00:57:38.489Z,15.57
2022-12-14T01:02:36.558Z,16.83
2022-12-14T01:07:34.604Z,18.10
2022-12-14T01:12:33.983Z,18.10
2022-12-14T01:17:32.031Z,16.57
2022-12-14T01:22:30.097Z,16.60
2022-12-14T01:27:28.125Z,18.20
2022-12-14T01:32:27.500Z,16.23
2022-12-14T01:37:25.593Z,17.47
2022-12-14T01:42:23.890Z,17.57
2022-12-14T01:47:28.167Z,16.50
2022-12-14T01:52:31.524Z,19.63
2022-12-14T01:57:33.721Z,17.50
2022-12-14T02:02:33.763Z,16.10
2022-12-14T02:07:32.906Z,17.27
2022-12-14T02:12:35.037Z,17.17
2022-12-14T02:17:34.970Z,17.03
2022-12-14T02:23:04.204Z,15.93
2022-12-14T02:28:38.923Z,18.97
2022-12-14T02:33:46.302Z,15.97
2022-12-14T02:38:58.250Z,17.57
2022-12-14T02:44:05.796Z,17.80
2022-12-14T02:49:11.326Z,16.50
2022-12-14T02:54:14.708Z,17.00
2022-12-14T02:59:13.328Z,15.93
2022-12-14T03:04:12.702Z,16.13
2022-12-14T03:09:18.705Z,17.67
2022-12-14T03:14:21.428Z,17.00
2022-12-14T03:19:25.920Z,15.27
2022-12-14T03:24:28.966Z,17.00
2022-12-14T03:29:29.693Z,16.27
2022-12-14T03:34:32.581Z,17.63
2022-12-14T03:39:34.146Z,14.97
2022-12-14T03:44:48.936Z,17.47
2022-12-14T03:50:00.053Z,16.10
2022-12-14T03:55:07.700Z,18.37
2022-12-14T04:00:09.052Z,16.70
2022-12-14T04:05:19.225Z,15.97
2022-12-14T04:10:39.386Z,16.90
2022-12-14T04:15:57.193Z,17.90
2022-12-14T04:21:00.528Z,18.60
2022-12-14T04:26:05.367Z,17.60
2022-12-14T04:31:08.144Z,18.57
2022-12-14T04:36:08.528Z,19.07
2022-12-14T04:41:10.063Z,17.33
2022-12-14T04:46:12.601Z,17.80
2022-12-14T04:51:17.793Z,17.37
2022-12-14T04:56:21.233Z,17.70
2022-12-14T05:01:34.773Z,17.17
2022-12-14T05:06:40.914Z,18.30
2022-12-14T05:11:54.101Z,18.40
2022-12-14T05:16:52.802Z,16.23
2022-12-14T05:21:53.274Z,16.50
2022-12-14T05:26:51.277Z,16.97
2022-12-14T05:31:49.764Z,15.50
2022-12-14T05:36:47.966Z,18.00
2022-12-14T05:41:47.346Z,17.23
2022-12-14T05:46:45.366Z,16.37
2022-12-14T05:51:43.394Z,16.40
2022-12-14T05:56:41.380Z,17.50
2022-12-14T06:01:40.789Z,16.73
2022-12-14T06:06:38.819Z,16.80
2022-12-14T06:11:39.169Z,17.17
2022-12-14T06:16:40.258Z,17.30
2022-12-14T06:21:41.477Z,17.10
2022-12-14T06:26:41.346Z,17.67
2022-12-14T06:31:39.481Z,14.10
2022-12-14T06:36:40.854Z,15.63
2022-12-14T06:41:39.154Z,16.17
2022-12-14T06:46:38.077Z,16.90
2022-12-14T06:51:41.258Z,16.83
2022-12-14T06:56:39.590Z,18.20
2022-12-14T07:01:39.085Z,16.80
2022-12-14T07:06:39.433Z,17.27
2022-12-14T07:11:38.814Z,16.20
2022-12-14T07:16:37.215Z,14.93
2022-12-14T07:21:35.242Z,15.33
2022-12-14T07:26:33.284Z,15.70
2022-12-14T07:31:32.765Z,15.97
2022-12-14T07:36:32.855Z,17.90
2022-12-14T07:41:32.375Z,15.33
2022-12-14T07:46:32.969Z,15.80
2022-12-14T07:51:33.505Z,16.10
2022-12-14T07:56:34.281Z,14.80
2022-12-14T08:01:35.587Z,15.40
2022-12-14T08:06:34.390Z,14.70
2022-12-14T08:11:32.401Z,16.10
2022-12-14T08:16:32.583Z,16.20
2022-12-14T08:21:32.894Z,17.77
2022-12-14T08:26:35.550Z,15.43
2022-12-14T08:31:35.135Z,15.50
2022-12-14T08:36:35.736Z,15.73
2022-12-14T08:41:34.078Z,15.80
2022-12-14T08:46:34.041Z,14.63
2022-12-14T08:51:32.181Z,17.17
2022-12-14T08:56:31.584Z,14.70
2022-12-14T09:01:34.349Z,15.13
2022-12-14T09:06:35.836Z,13.70
2022-12-14T09:11:35.190Z,13.57
2022-12-14T09:16:33.289Z,13.80
2022-12-14T09:21:31.564Z,13.40
2022-12-14T09:26:30.478Z,13.73
2022-12-14T09:31:30.096Z,14.43
2022-12-14T09:36:29.684Z,13.33
2022-12-14T09:41:50.945Z,12.77
2022-12-14T09:46:59.081Z,13.57
2022-12-14T09:52:00.485Z,14.60
2022-12-14T09:57:02.731Z,14.30
2022-12-14T10:02:33.972Z,14.53
2022-12-14T10:07:38.121Z,13.93
2022-12-14T10:12:48.703Z,13.23
2022-12-14T10:18:27.510Z,13.90
2022-12-14T10:23:29.778Z,14.33
2022-12-14T10:28:39.572Z,15.57
2022-12-14T10:33:44.844Z,14.37
2022-12-14T10:38:50.649Z,13.73
2022-12-14T10:43:57.178Z,15.10
2022-12-14T10:49:03.445Z,13.57
2022-12-14T10:54:09.042Z,14.07
2022-12-14T10:59:40.300Z,13.50
2022-12-14T11:04:50.270Z,13.57
2022-12-14T11:09:48.859Z,13.40
2022-12-14T11:14:55.904Z,13.90
2022-12-14T11:20:17.812Z,13.53
2022-12-14T11:25:35.811Z,13.50
2022-12-14T11:30:33.996Z,13.53
2022-12-14T11:35:33.632Z,12.33
2022-12-14T11:40:38.057Z,12.60
2022-12-14T11:45:38.210Z,12.83
2022-12-14T11:50:37.834Z,13.87
2022-12-14T11:55:39.336Z,13.30
2022-12-14T12:00:47.219Z,15.33
2022-12-14T12:05:48.050Z,14.07
2022-12-14T12:10:50.315Z,14.17
2022-12-14T12:15:51.784Z,13.13
2022-12-14T12:20:58.700Z,13.73
2022-12-14T12:25:59.649Z,14.23
2022-12-14T12:31:10.347Z,12.97
2022-12-14T12:36:10.790Z,12.73
2022-12-14T12:41:22.482Z,13.90
2022-12-14T12:46:23.660Z,13.13
2022-12-14T12:51:28.027Z,12.93
2022-12-14T12:56:34.513Z,13.47
2022-12-14T13:01:37.392Z,13.50
2022-12-14T13:06:42.542Z,13.47
2022-12-14T13:11:41.712Z,12.40
2022-12-14T13:16:42.223Z,12.67
2022-12-14T13:21:49.763Z,12.97
2022-12-14T13:27:21.285Z,12.93
2022-12-14T13:32:37.179Z,14.40
2022-12-14T13:38:11.841Z,13.93
2022-12-14T13:43:24.638Z,14.00
2022-12-14T13:48:25.213Z,13.67
2022-12-14T13:53:30.853Z,14.63
2022-12-14T13:58:38.591Z,14.50
2022-12-14T14:03:48.504Z,15.03
2022-12-14T14:08:51.826Z,13.13
2022-12-14T14:14:08.614Z,15.20
2022-12-14T14:19:18.931Z,14.17
2022-12-14T14:24:23.122Z,15.30
2022-12-14T14:29:26.420Z,16.37
2022-12-14T14:34:40.713Z,17.17
2022-12-14T14:40:04.554Z,15.33
2022-12-14T14:45:02.357Z,14.40
2022-12-14T14:50:03.773Z,15.10
2022-12-14T14:55:54.526Z,15.93
2022-12-14T15:01:01.054Z,15.97
2022-12-14T15:06:00.589Z,15.00
2022-12-14T15:11:01.176Z,16.60
2022-12-14T15:16:00.691Z,13.53
2022-12-14T15:21:03.016Z,14.77
2022-12-14T15:26:02.861Z,14.57
2022-12-14T15:31:02.294Z,16.00
2022-12-14T15:36:05.697Z,15.87
2022-12-14T15:41:05.860Z,16.20
2022-12-14T15:46:05.355Z,17.00
2022-12-14T15:51:05.415Z,16.13
2022-12-14T15:56:17.301Z,18.10
2022-12-14T16:01:21.064Z,18.90
2022-12-14T16:06:19.904Z,18.90
2022-12-14T16:11:24.134Z,20.90
2022-12-14T16:16:23.786Z,19.47
2022-12-14T16:21:30.675Z,20.70
2022-12-14T16:26:36.208Z,21.80
2022-12-14T16:31:37.042Z,18.90
2022-12-14T16:36:36.646Z,20.60
2022-12-14T16:41:39.137Z,23.07
2022-12-14T16:46:38.608Z,22.70
2022-12-14T16:57:01.266Z,20.17
2022-12-14T17:02:01.003Z,22.43
2022-12-14T17:06:59.175Z,22.80
2022-12-14T17:11:59.925Z,21.47
2022-12-14T17:17:02.705Z,21.00
2022-12-14T17:22:01.555Z,20.60
2022-12-14T17:26:59.638Z,21.90
2022-12-14T17:32:01.185Z,20.13
2022-12-14T17:37:01.018Z,21.87
2022-12-14T17:41:59.049Z,22.30
2022-12-14T17:46:57.200Z,21.83
2022-12-14T17:51:55.263Z,23.70
2022-12-14T17:56:54.688Z,22.90
2022-12-14T18:01:52.922Z,22.80
2022-12-14T18:06:51.498Z,24.87
2022-12-14T18:12:21.714Z,22.90
2022-12-14T18:17:11.664Z,22.37
2022-12-14T18:22:11.899Z,23.97
2022-12-14T18:27:09.931Z,25.40
2022-12-14T18:32:13.696Z,26.97
2022-12-14T18:37:11.790Z,26.43
2022-12-14T18:42:10.456Z,26.10
2022-12-14T18:47:39.633Z,25.47
2022-12-14T18:52:27.912Z,28.30
2022-12-14T18:57:26.017Z,25.40
2022-12-14T19:02:25.766Z,27.63
2022-12-14T19:07:23.987Z,27.80
2022-12-14T19:12:22.043Z,28.13
2022-12-14T19:17:20.111Z,26.70
2022-12-14T19:22:20.524Z,30.13
2022-12-14T19:27:35.639Z,28.10
2022-12-14T19:32:36.649Z,27.70
2022-12-14T19:37:36.139Z,28.37
2022-12-14T19:42:34.181Z,29.70
2022-12-14T19:47:32.223Z,27.27
2022-12-14T19:52:30.284Z,28.20
2022-12-14T19:57:30.055Z,30.30
2022-12-14T20:02:28.554Z,30.90
2022-12-14T20:07:26.762Z,30.07
2022-12-14T20:12:26.029Z,31.07
2022-12-14T20:17:25.502Z,31.07
2022-12-14T20:22:23.597Z,30.70
2022-12-14T20:27:21.645Z,30.10
2022-12-14T20:32:19.725Z,28.67
2022-12-14T20:37:19.140Z,28.83
2022-12-14T20:42:17.250Z,29.33
2022-12-14T20:47:15.323Z,29.60
2022-12-14T20:52:13.390Z,27.03
2022-12-14T20:57:12.798Z,30.43
2022-12-14T21:02:17.446Z,27.63
2022-12-14T21:07:15.605Z,28.07
2022-12-14T21:12:23.873Z,31.17
2022-12-14T21:17:23.265Z,28.87
2022-12-14T21:22:23.262Z,29.10
2022-12-14T21:27:25.073Z,31.03
2022-12-14T21:32:24.026Z,28.57
2022-12-14T21:37:22.132Z,31.60
2022-12-14T21:42:20.626Z,30.67
2022-12-14T21:47:22.865Z,29.80
2022-12-14T21:52:22.664Z,28.20
2022-12-14T21:57:40.773Z,29.20
2022-12-14T22:02:41.439Z,27.97
2022-12-14T22:07:39.926Z,30.50
2022-12-14T22:12:38.002Z,30.97
2022-12-14T22:17:36.042Z,31.80
2022-12-14T22:22:35.497Z,29.83
2022-12-14T22:27:33.509Z,31.47
2022-12-14T22:32:31.738Z,33.10
2022-12-14T22:37:29.781Z,32.10
2022-12-14T22:42:29.175Z,33.73
2022-12-14T22:47:27.204Z,33.10
2022-12-14T22:52:25.297Z,35.00
2022-12-14T22:57:24.321Z,32.40
2022-12-14T23:02:24.524Z,33.77
2022-12-14T23:07:22.841Z,31.67
2022-12-14T23:12:38.746Z,31.80
2022-12-14T23:17:55.318Z,32.07
2022-12-14T23:23:10.832Z,30.07
2022-12-14T23:28:26.619Z,32.90
2022-12-14T23:33:43.472Z,30.50
2022-12-14T23:38:59.064Z,31.57
2022-12-14T23:44:14.458Z,32.30
2022-12-14T23:49:31.403Z,32.37
2022-12-14T23:54:47.170Z,33.60
